Terminal Aerodrome Forecast
Issued by NWS

Home | Current Version | Previous Version | Text Only | Print | Product List | Glossary On
Versions: 1 2 3 4 5 6 7 8 9 10 11 12 13 14 15
000
FTUS44 KJAN 190304 AAA
TAFGTR
TAF AMD
KGTR 190304Z 1903/1924 16004KT P6SM VCSH BKN090
     FM190400 14007KT 5SM -SHRA BR BKN008 BKN025 OVC050
     FM191500 16010KT 3SM TSRA BR BKN008 OVC050CB
     FM192100 18010G20KT 5SM -TSRA SCT006 BKN015CB OVC050=

USA.gov is the U.S. government's official web portal to all federal, state and local government web resources and services.